createdAt,value
2023-11-01T00:00:08.020Z,99729.72
2023-11-01T00:00:26.346Z,99748.25
2023-11-01T00:00:41.628Z,99744.94
2023-11-01T00:00:56.648Z,99747.44
2023-11-01T00:01:08.884Z,99749.06
2023-11-01T00:01:21.602Z,99744.53
2023-11-01T00:01:34.108Z,99743.31
2023-11-01T00:01:48.893Z,99738.78
2023-11-01T00:02:01.610Z,99749.06
2023-11-01T00:02:14.736Z,99744.53
2023-11-01T00:02:30.118Z,99741.03
2023-11-01T00:02:45.093Z,99745.56
2023-11-01T00:02:57.902Z,99747.63
2023-11-01T00:03:14.086Z,99742.88
2023-11-01T00:03:27.008Z,99751.91
2023-11-01T00:03:39.854Z,99738.78
2023-11-01T00:03:53.100Z,99739.16
2023-11-01T00:04:09.623Z,99743.91
2023-11-01T00:04:22.096Z,99747.44
2023-11-01T00:04:35.493Z,99734.06
2023-11-01T00:04:48.338Z,99749.25
2023-11-01T00:05:03.966Z,99737.75
2023-11-01T00:05:21.683Z,99748.00
2023-11-01T00:05:37.503Z,99738.78
2023-11-01T00:05:49.976Z,99746.56
2023-11-01T00:06:02.883Z,99737.34
2023-11-01T00:06:15.672Z,99743.50
2023-11-01T00:06:28.518Z,99734.88
2023-11-01T00:06:41.292Z,99730.13
2023-11-01T00:06:54.117Z,99728.28
2023-11-01T00:07:07.311Z,99743.31
2023-11-01T00:07:19.780Z,99734.06
2023-11-01T00:07:34.228Z,99744.50
2023-11-01T00:07:46.838Z,99745.34
2023-11-01T00:07:59.304Z,99739.75
2023-11-01T00:08:12.011Z,99743.69
2023-11-01T00:08:24.829Z,99746.34
2023-11-01T00:08:39.389Z,99741.59
2023-11-01T00:08:52.107Z,99756.03
2023-11-01T00:09:07.670Z,99743.50
2023-11-01T00:09:20.169Z,99744.72
2023-11-01T00:09:32.685Z,99742.66
2023-11-01T00:09:46.230Z,99749.19
2023-11-01T00:09:58.751Z,99749.84
2023-11-01T00:10:11.701Z,99751.88
2023-11-01T00:10:24.387Z,99754.34
2023-11-01T00:10:36.924Z,99753.09
2023-11-01T00:10:54.705Z,99746.13
2023-11-01T00:11:07.794Z,99751.28
2023-11-01T00:11:22.786Z,99752.28
2023-11-01T00:11:35.153Z,99748.97
2023-11-01T00:11:47.864Z,99752.47
2023-11-01T00:12:03.699Z,99752.09
2023-11-01T00:12:16.550Z,99745.91
2023-11-01T00:12:28.956Z,99756.59
2023-11-01T00:12:41.581Z,99755.97
2023-11-01T00:12:54.547Z,99759.28
2023-11-01T00:13:06.746Z,99750.38
2023-11-01T00:13:19.679Z,99750.38
2023-11-01T00:13:31.893Z,99754.72
2023-11-01T00:13:44.633Z,99758.44
2023-11-01T00:13:57.467Z,99762.13
2023-11-01T00:14:10.534Z,99757.19
2023-11-01T00:14:25.777Z,99750.81
2023-11-01T00:14:46.885Z,99743.81
2023-11-01T00:15:01.989Z,99757.78
2023-11-01T00:15:20.773Z,99741.78
2023-11-01T00:15:33.302Z,99756.97
2023-11-01T00:15:45.565Z,99747.72
2023-11-01T00:15:58.133Z,99750.38
2023-11-01T00:16:10.869Z,99753.91
2023-11-01T00:16:23.689Z,99760.47
2023-11-01T00:16:36.090Z,99756.16
2023-11-01T00:16:51.764Z,99755.53
2023-11-01T00:17:04.449Z,99746.53
2023-11-01T00:17:17.307Z,99761.69
2023-11-01T00:17:32.087Z,99746.50
2023-11-01T00:17:44.818Z,99755.13
2023-11-01T00:17:57.859Z,99756.56
2023-11-01T00:18:13.475Z,99760.03
2023-11-01T00:18:28.702Z,99751.41
2023-11-01T00:18:41.101Z,99755.53
2023-11-01T00:18:53.839Z,99747.31
2023-11-01T00:19:13.663Z,99757.38
2023-11-01T00:19:26.421Z,99749.16
2023-11-01T00:19:38.935Z,99745.63
2023-11-01T00:19:51.451Z,99739.72
2023-11-01T00:20:04.275Z,99758.81
2023-11-01T00:20:19.800Z,99755.53
2023-11-01T00:20:32.894Z,99752.63
2023-11-01T00:20:48.748Z,99757.38
2023-11-01T00:21:01.662Z,99752.88
2023-11-01T00:21:14.440Z,99756.56
2023-11-01T00:21:26.914Z,99753.06
2023-11-01T00:21:40.676Z,99754.72
2023-11-01T00:21:55.602Z,99748.94
2023-11-01T00:22:08.135Z,99744.63
2023-11-01T00:22:20.713Z,99751.41
2023-11-01T00:22:34.273Z,99749.78
2023-11-01T00:22:46.851Z,99750.16
2023-11-01T00:22:59.550Z,99752.41
2023-11-01T00:23:12.325Z,99753.03
2023-11-01T00:23:24.724Z,99762.25
2023-11-01T00:23:36.916Z,99752.19
2023-11-01T00:23:52.539Z,99764.56
2023-11-01T00:24:05.909Z,99756.94
2023-11-01T00:24:18.667Z,99766.59
2023-11-01T00:24:31.408Z,99756.88
2023-11-01T00:24:44.844Z,99762.84
2023-11-01T00:24:57.666Z,99756.06
2023-11-01T00:25:10.365Z,99761.03
2023-11-01T00:25:23.174Z,99764.50
2023-11-01T00:25:35.980Z,99753.19
2023-11-01T00:25:51.823Z,99753.41
2023-11-01T00:26:05.069Z,99759.97
2023-11-01T00:26:23.025Z,99764.88
2023-11-01T00:26:40.681Z,99768.00
2023-11-01T00:26:57.494Z,99758.56
2023-11-01T00:27:10.279Z,99769.03
2023-11-01T00:27:22.974Z,99764.69
2023-11-01T00:27:35.845Z,99759.97
2023-11-01T00:27:51.332Z,99761.22
2023-11-01T00:28:04.043Z,99764.06
2023-11-01T00:28:16.630Z,99756.69
2023-11-01T00:28:28.940Z,99758.09
2023-11-01T00:28:41.647Z,99768.19
2023-11-01T00:28:54.432Z,99766.38
2023-11-01T00:29:07.099Z,99764.69
2023-11-01T00:29:19.760Z,99771.69
2023-11-01T00:29:34.997Z,99765.72
2023-11-01T00:29:47.562Z,99761.59
2023-11-01T00:30:01.329Z,99769.84
2023-11-01T00:30:13.997Z,99767.75
2023-11-01T00:30:26.905Z,99757.47
2023-11-01T00:30:39.692Z,99767.56
2023-11-01T00:30:52.077Z,99772.69
2023-11-01T00:31:05.173Z,99758.09
2023-11-01T00:31:17.778Z,99775.19
2023-11-01T00:31:30.477Z,99770.22
2023-11-01T00:31:43.061Z,99771.25
2023-11-01T00:31:55.796Z,99771.25
2023-11-01T00:32:11.485Z,99775.38
2023-11-01T00:32:24.091Z,99768.41
2023-11-01T00:32:36.552Z,99777.03
2023-11-01T00:32:49.159Z,99764.25
2023-11-01T00:33:01.863Z,99771.44
2023-11-01T00:33:14.852Z,99768.59
2023-11-01T00:33:27.694Z,99776.41
2023-11-01T00:33:40.233Z,99771.88
2023-11-01T00:33:52.994Z,99774.72
2023-11-01T00:34:06.467Z,99769.16
2023-11-01T00:34:19.152Z,99768.41
2023-11-01T00:34:34.114Z,99777.22
2023-11-01T00:34:47.183Z,99780.88
2023-11-01T00:35:02.756Z,99772.88
2023-11-01T00:35:20.360Z,99770.22
2023-11-01T00:35:35.410Z,99772.88
2023-11-01T00:35:47.548Z,99784.19
2023-11-01T00:36:00.364Z,99764.84
2023-11-01T00:36:14.130Z,99767.94
2023-11-01T00:36:29.621Z,99781.72
2023-11-01T00:36:42.043Z,99774.72
2023-11-01T00:36:57.385Z,99772.06
2023-11-01T00:37:09.985Z,99756.25
2023-11-01T00:37:22.971Z,99766.50
2023-11-01T00:37:39.327Z,99769.81
2023-11-01T00:37:54.022Z,99771.25
2023-11-01T00:38:07.784Z,99764.03
2023-11-01T00:38:23.870Z,99768.97
2023-11-01T00:38:36.771Z,99763.03
2023-11-01T00:38:49.691Z,99770.03
2023-11-01T00:39:02.500Z,99770.22
2023-11-01T00:39:15.194Z,99774.72
2023-11-01T00:39:30.337Z,99767.72
2023-11-01T00:39:42.975Z,99761.34
2023-11-01T00:39:55.611Z,99774.09
2023-11-01T00:40:09.052Z,99773.91
2023-11-01T00:40:21.990Z,99769.59
2023-11-01T00:40:37.402Z,99769.41
2023-11-01T00:40:49.911Z,99772.03
2023-11-01T00:41:02.126Z,99767.50
2023-11-01T00:41:14.479Z,99761.56
2023-11-01T00:41:27.487Z,99773.47
2023-11-01T00:41:40.056Z,99772.03
2023-11-01T00:41:52.596Z,99768.72
2023-11-01T00:42:05.578Z,99768.34
2023-11-01T00:42:19.619Z,99773.47
2023-11-01T00:42:34.548Z,99774.50
2023-11-01T00:42:47.667Z,99777.97
2023-11-01T00:43:00.266Z,99776.97
2023-11-01T00:43:12.862Z,99775.31
2023-11-01T00:43:25.494Z,99776.13
2023-11-01T00:43:38.443Z,99770.75
2023-11-01T00:43:51.031Z,99772.22
2023-11-01T00:44:03.731Z,99771.00
2023-11-01T00:44:16.825Z,99779.00
2023-11-01T00:44:29.605Z,99755.16
2023-11-01T00:44:45.177Z,99767.31
2023-11-01T00:44:57.982Z,99768.09
2023-11-01T00:45:11.597Z,99770.38
2023-11-01T00:45:24.013Z,99778.78
2023-11-01T00:45:36.395Z,99766.69
2023-11-01T00:45:49.509Z,99775.72
2023-11-01T00:46:02.637Z,99774.91
2023-11-01T00:46:15.081Z,99771.19
2023-11-01T00:46:30.493Z,99778.16
2023-11-01T00:46:46.188Z,99770.56
2023-11-01T00:46:58.703Z,99780.22
2023-11-01T00:47:11.805Z,99775.91
2023-11-01T00:47:26.163Z,99775.25
2023-11-01T00:47:39.165Z,99773.22
2023-11-01T00:47:55.179Z,99785.16
2023-11-01T00:48:10.909Z,99786.16
2023-11-01T00:48:23.846Z,99784.34
2023-11-01T00:48:38.942Z,99783.50
2023-11-01T00:48:51.892Z,99782.88
2023-11-01T00:49:07.759Z,99773.63
2023-11-01T00:49:20.523Z,99770.16
2023-11-01T00:49:33.426Z,99786.78
2023-11-01T00:49:48.939Z,99778.78
2023-11-01T00:50:06.198Z,99775.31
2023-11-01T00:50:18.936Z,99777.16
2023-11-01T00:50:34.811Z,99779.66
2023-11-01T00:50:47.657Z,99782.69
2023-11-01T00:50:59.988Z,99783.31
2023-11-01T00:51:12.799Z,99773.63
2023-11-01T00:51:25.582Z,99782.69
2023-11-01T00:51:38.312Z,99769.75
2023-11-01T00:51:50.891Z,99769.31
2023-11-01T00:52:03.631Z,99783.31
2023-11-01T00:52:16.639Z,99785.97
2023-11-01T00:52:29.693Z,99777.75
2023-11-01T00:52:43.944Z,99768.47
2023-11-01T00:52:59.154Z,99783.31
2023-11-01T00:53:13.231Z,99783.50
2023-11-01T00:53:26.178Z,99789.47
2023-11-01T00:53:41.906Z,99781.69
2023-11-01T00:53:54.536Z,99777.56
2023-11-01T00:54:07.200Z,99785.97
2023-11-01T00:54:19.837Z,99775.09
2023-11-01T00:54:32.682Z,99787.63
2023-11-01T00:54:48.452Z,99780.81
2023-11-01T00:55:04.326Z,99777.75
2023-11-01T00:55:19.829Z,99792.34
2023-11-01T00:55:32.788Z,99792.97
2023-11-01T00:55:47.769Z,99793.56
2023-11-01T00:56:00.501Z,99789.03
2023-11-01T00:56:17.507Z,99794.59
2023-11-01T00:56:32.632Z,99779.38
2023-11-01T00:56:45.747Z,99795.41
2023-11-01T00:56:58.604Z,99791.31
2023-11-01T00:57:12.774Z,99798.09
2023-11-01T00:57:25.720Z,99796.44
2023-11-01T00:57:43.583Z,99789.03
2023-11-01T00:57:59.418Z,99785.34
2023-11-01T00:58:14.983Z,99792.13
2023-11-01T00:58:29.017Z,99793.97
2023-11-01T00:58:43.275Z,99789.84
2023-11-01T00:58:56.374Z,99777.28
2023-11-01T00:59:09.386Z,99790.50
2023-11-01T00:59:24.697Z,99785.94
2023-11-01T00:59:37.831Z,99798.31
2023-11-01T00:59:50.836Z,99790.88
2023-11-01T01:00:05.172Z,99798.47
2023-11-01T01:00:18.634Z,99796.63
2023-11-01T01:00:32.205Z,99788.59
2023-11-01T01:00:44.984Z,99798.03
2023-11-01T01:00:57.823Z,99788.81
2023-11-01T01:01:10.953Z,99786.97
2023-11-01T01:01:24.744Z,99796.81
2023-11-01T01:01:37.779Z,99787.97
2023-11-01T01:01:50.780Z,99795.59
2023-11-01T01:02:03.697Z,99796.41
2023-11-01T01:02:17.725Z,99801.34
2023-11-01T01:02:33.786Z,99788.59
2023-11-01T01:02:49.132Z,99803.19
2023-11-01T01:03:05.499Z,99790.63
2023-11-01T01:03:18.333Z,99805.44
2023-11-01T01:03:34.564Z,99800.06
2023-11-01T01:03:47.437Z,99795.81
2023-11-01T01:04:00.430Z,99796.41
2023-11-01T01:04:13.641Z,99799.88
2023-11-01T01:04:29.060Z,99810.78
2023-11-01T01:04:42.001Z,99803.81
2023-11-01T01:04:57.848Z,99809.97
2023-11-01T01:05:22.455Z,99791.47
2023-11-01T01:05:43.206Z,99814.28
2023-11-01T01:05:59.121Z,99810.78
2023-11-01T01:06:14.671Z,99803.81
2023-11-01T01:06:27.537Z,99808.97
2023-11-01T01:06:40.538Z,99811.63
2023-11-01T01:06:56.052Z,99805.84
2023-11-01T01:07:10.214Z,99808.69
2023-11-01T01:07:28.361Z,99815.13
2023-11-01T01:07:46.299Z,99809.34
2023-11-01T01:08:00.889Z,99815.13
2023-11-01T01:08:19.675Z,99822.91
2023-11-01T01:08:32.688Z,99817.31
2023-11-01T01:08:47.105Z,99819.63
2023-11-01T01:09:00.060Z,99813.44
2023-11-01T01:09:12.951Z,99819.63
2023-11-01T01:09:30.883Z,99818.16
2023-11-01T01:09:43.722Z,99815.28
2023-11-01T01:09:57.157Z,99821.44
2023-11-01T01:10:12.355Z,99810.38
2023-11-01T01:10:25.549Z,99816.50
2023-11-01T01:10:38.561Z,99819.00
2023-11-01T01:10:51.032Z,99817.78
2023-11-01T01:11:07.100Z,99815.13
2023-11-01T01:11:22.698Z,99821.91
2023-11-01T01:11:39.547Z,99815.13
2023-11-01T01:11:52.546Z,99821.06
2023-11-01T01:12:05.663Z,99816.97
2023-11-01T01:12:18.265Z,99811.38
2023-11-01T01:12:36.713Z,99820.44
2023-11-01T01:12:49.032Z,99823.09
2023-11-01T01:13:02.017Z,99814.03
2023-11-01T01:13:14.703Z,99818.59
2023-11-01T01:13:29.938Z,99820.44
2023-11-01T01:13:42.660Z,99814.47
2023-11-01T01:13:55.351Z,99813.03
2023-11-01T01:14:10.965Z,99816.31
2023-11-01T01:14:26.619Z,99810.53
2023-11-01T01:14:39.231Z,99820.44
2023-11-01T01:14:54.764Z,99828.44
2023-11-01T01:15:08.661Z,99824.31
2023-11-01T01:15:21.509Z,99824.09
2023-11-01T01:15:34.519Z,99827.41
2023-11-01T01:15:47.719Z,99824.97
2023-11-01T01:16:00.655Z,99810.94
2023-11-01T01:16:19.148Z,99827.63
2023-11-01T01:16:34.294Z,99814.03
2023-11-01T01:16:48.789Z,99821.44
2023-11-01T01:17:04.074Z,99823.47
2023-11-01T01:17:17.265Z,99824.09
2023-11-01T01:17:33.296Z,99827.63
2023-11-01T01:17:46.713Z,99814.88
2023-11-01T01:17:59.833Z,99820.63
2023-11-01T01:18:12.879Z,99819.81
2023-11-01T01:18:25.466Z,99820.63
2023-11-01T01:18:38.786Z,99825.78
2023-11-01T01:18:51.790Z,99819.81
2023-11-01T01:19:05.199Z,99810.72
2023-11-01T01:19:20.659Z,99821.03
2023-11-01T01:19:35.685Z,99813.22
2023-11-01T01:19:48.607Z,99822.88
2023-11-01T01:20:01.327Z,99820.38
2023-11-01T01:20:15.158Z,99822.03
2023-11-01T01:20:28.645Z,99818.53
2023-11-01T01:20:41.605Z,99823.69
2023-11-01T01:20:55.466Z,99818.53
2023-11-01T01:21:08.813Z,99820.38
2023-11-01T01:21:23.990Z,99823.06
2023-11-01T01:21:44.322Z,99819.56
2023-11-01T01:21:57.478Z,99822.25
2023-11-01T01:22:13.533Z,99821.38
2023-11-01T01:22:29.090Z,99800.47
2023-11-01T01:22:41.704Z,99805.78
2023-11-01T01:22:54.060Z,99809.72
2023-11-01T01:23:09.182Z,99809.72
2023-11-01T01:23:26.516Z,99816.28
2023-11-01T01:23:41.908Z,99818.53
2023-11-01T01:23:55.009Z,99812.56
2023-11-01T01:24:08.428Z,99814.25
2023-11-01T01:24:23.859Z,99806.63
2023-11-01T01:24:36.750Z,99816.91
2023-11-01T01:24:52.473Z,99802.91
2023-11-01T01:25:07.604Z,99810.53
2023-11-01T01:25:22.134Z,99807.47
2023-11-01T01:25:34.623Z,99812.78
2023-11-01T01:25:47.554Z,99808.06
2023-11-01T01:26:00.364Z,99813.22
2023-11-01T01:26:14.984Z,99819.19
2023-11-01T01:26:27.725Z,99809.53
2023-11-01T01:26:41.979Z,99806.88
2023-11-01T01:26:57.864Z,99806.88
2023-11-01T01:27:10.723Z,99813.84
2023-11-01T01:27:26.921Z,99817.53
2023-11-01T01:27:42.324Z,99812.22
2023-11-01T01:27:57.806Z,99802.13
2023-11-01T01:28:12.714Z,99796.81
2023-11-01T01:28:27.890Z,99804.22
2023-11-01T01:28:43.264Z,99807.25
2023-11-01T01:28:56.794Z,99806.66
2023-11-01T01:29:09.520Z,99809.53
2023-11-01T01:29:23.082Z,99807.69
2023-11-01T01:29:38.450Z,99810.38
2023-11-01T01:29:51.410Z,99816.31
2023-11-01T01:30:04.675Z,99805.03
2023-11-01T01:30:17.677Z,99809.53
2023-11-01T01:30:30.674Z,99813.84
2023-11-01T01:30:43.496Z,99804.41
2023-11-01T01:30:56.282Z,99814.66
2023-11-01T01:31:08.672Z,99800.91
2023-11-01T01:31:23.149Z,99812.44
2023-11-01T01:31:38.431Z,99809.16
2023-11-01T01:31:51.752Z,99801.56
2023-11-01T01:32:05.000Z,99801.72
2023-11-01T01:32:17.831Z,99800.91
2023-11-01T01:32:32.940Z,99807.47
2023-11-01T01:32:50.712Z,99798.88
2023-11-01T01:33:03.947Z,99796.22
2023-11-01T01:33:17.066Z,99802.78
2023-11-01T01:33:31.447Z,99809.56
2023-11-01T01:33:47.140Z,99800.53
2023-11-01T01:34:02.625Z,99801.72
2023-11-01T01:34:18.444Z,99806.09
2023-11-01T01:34:33.266Z,99815.13
2023-11-01T01:34:46.303Z,99807.47
2023-11-01T01:34:59.117Z,99807.94
2023-11-01T01:35:11.676Z,99807.13
2023-11-01T01:35:26.316Z,99809.34
2023-11-01T01:35:39.781Z,99805.03
2023-11-01T01:35:53.159Z,99813.44
2023-11-01T01:36:06.479Z,99813.66
2023-11-01T01:36:22.097Z,99812.81
2023-11-01T01:36:35.186Z,99822.91
2023-11-01T01:36:47.915Z,99815.69
2023-11-01T01:37:03.614Z,99826.81
2023-11-01T01:37:19.469Z,99809.53
2023-11-01T01:37:38.171Z,99822.28
2023-11-01T01:37:51.295Z,99818.41
2023-11-01T01:38:04.205Z,99810.78
2023-11-01T01:38:18.811Z,99821.06
2023-11-01T01:38:31.635Z,99821.06
2023-11-01T01:38:44.696Z,99809.97
2023-11-01T01:38:57.537Z,99817.38
2023-11-01T01:39:12.795Z,99821.72
2023-11-01T01:39:25.702Z,99812.63
2023-11-01T01:39:40.040Z,99822.72
2023-11-01T01:39:54.908Z,99818.19
2023-11-01T01:40:11.577Z,99819.03
2023-11-01T01:40:24.336Z,99822.72
2023-11-01T01:40:42.728Z,99817.38
2023-11-01T01:40:57.773Z,99826.81
2023-11-01T01:41:10.919Z,99817.38
2023-11-01T01:41:23.635Z,99820.69
2023-11-01T01:41:42.017Z,99819.69
2023-11-01T01:41:55.116Z,99814.72
2023-11-01T01:42:08.285Z,99823.97
2023-11-01T01:42:20.621Z,99817.19
2023-11-01T01:42:33.603Z,99810.59
2023-11-01T01:42:46.207Z,99815.75
2023-11-01T01:43:11.072Z,99818.19
2023-11-01T01:43:24.048Z,99822.94
2023-11-01T01:43:36.768Z,99824.78
2023-11-01T01:43:50.077Z,99825.63
2023-11-01T01:44:02.929Z,99824.63
2023-11-01T01:44:15.666Z,99822.75
2023-11-01T01:44:31.455Z,99818.47
2023-11-01T01:44:44.064Z,99821.13
2023-11-01T01:44:56.463Z,99817.63
2023-11-01T01:45:15.915Z,99810.41
2023-11-01T01:45:31.325Z,99830.38
2023-11-01T01:45:44.360Z,99827.91
2023-11-01T01:46:06.549Z,99819.91
2023-11-01T01:46:22.127Z,99826.88
2023-11-01T01:46:35.685Z,99826.88
2023-11-01T01:46:48.356Z,99829.38
2023-11-01T01:47:00.857Z,99825.25
2023-11-01T01:47:13.911Z,99825.66
2023-11-01T01:47:26.661Z,99816.22
2023-11-01T01:47:41.981Z,99820.28
2023-11-01T01:47:54.610Z,99828.34
2023-11-01T01:48:13.688Z,99814.34
2023-11-01T01:48:30.190Z,99832.22
2023-11-01T01:48:46.964Z,99825.25
2023-11-01T01:49:04.040Z,99824.03
2023-11-01T01:49:23.886Z,99829.38
2023-11-01T01:49:45.467Z,99828.53
2023-11-01T01:50:00.930Z,99825.47
2023-11-01T01:50:16.843Z,99828.34
2023-11-01T01:50:29.523Z,99818.66
2023-11-01T01:50:42.495Z,99820.53
2023-11-01T01:50:57.078Z,99831.22
2023-11-01T01:51:11.032Z,99824.84
2023-11-01T01:51:23.745Z,99814.94
2023-11-01T01:51:36.504Z,99821.13
2023-11-01T01:51:49.535Z,99814.94
2023-11-01T01:52:03.128Z,99820.53
2023-11-01T01:52:22.786Z,99824.22
2023-11-01T01:52:39.427Z,99816.16
2023-11-01T01:52:55.699Z,99830.56
2023-11-01T01:53:08.687Z,99829.31
2023-11-01T01:53:22.886Z,99836.72
2023-11-01T01:53:38.406Z,99829.31
2023-11-01T01:53:52.721Z,99828.91
2023-11-01T01:54:09.013Z,99823.34
2023-11-01T01:54:22.610Z,99831.78
2023-11-01T01:54:38.300Z,99827.69
2023-11-01T01:54:51.660Z,99836.28
2023-11-01T01:55:07.901Z,99835.47
2023-11-01T01:55:20.928Z,99821.91
2023-11-01T01:55:34.405Z,99832.78
2023-11-01T01:55:50.286Z,99826.41
2023-11-01T01:56:04.414Z,99824.38
2023-11-01T01:56:20.744Z,99827.03
2023-11-01T01:56:33.834Z,99815.28
2023-11-01T01:56:46.506Z,99838.94
2023-11-01T01:56:59.654Z,99833.81
2023-11-01T01:57:11.981Z,99824.75
2023-11-01T01:57:25.791Z,99826.59
2023-11-01T01:57:38.302Z,99823.09
2023-11-01T01:57:57.436Z,99826.59
2023-11-01T01:58:10.789Z,99819.19
2023-11-01T01:58:24.338Z,99830.06
2023-11-01T01:58:38.897Z,99831.75
2023-11-01T01:58:52.202Z,99835.41
2023-11-01T01:59:05.568Z,99830.06
2023-11-01T01:59:18.424Z,99841.56
2023-11-01T01:59:34.059Z,99838.28
2023-11-01T01:59:46.879Z,99832.75
2023-11-01T02:00:00.788Z,99825.53
2023-11-01T02:00:17.149Z,99832.31
2023-11-01T02:00:32.472Z,99826.72
2023-11-01T02:00:46.125Z,99839.47
2023-11-01T02:01:01.030Z,99830.03
2023-11-01T02:01:15.104Z,99837.00
2023-11-01T02:01:42.644Z,99825.91
2023-11-01T02:02:04.400Z,99826.72
2023-11-01T02:02:21.884Z,99837.84
2023-11-01T02:02:38.317Z,99837.84
2023-11-01T02:02:55.481Z,99836.19
2023-11-01T02:03:08.893Z,99833.53
2023-11-01T02:03:25.222Z,99835.16
2023-11-01T02:03:38.472Z,99826.72
2023-11-01T02:03:54.085Z,99823.63
2023-11-01T02:04:09.550Z,99831.88
2023-11-01T02:04:26.462Z,99831.22
2023-11-01T02:04:40.569Z,99829.19
2023-11-01T02:04:57.933Z,99827.34
2023-11-01T02:05:13.533Z,99827.16
2023-11-01T02:05:26.740Z,99828.38
2023-11-01T02:05:40.205Z,99843.16
2023-11-01T02:05:59.811Z,99839.69
2023-11-01T02:06:20.500Z,99839.69
2023-11-01T02:06:35.347Z,99833.25
2023-11-01T02:06:52.963Z,99843.34
2023-11-01T02:07:11.984Z,99842.53
2023-11-01T02:07:27.107Z,99841.72
2023-11-01T02:07:40.315Z,99837.38
2023-11-01T02:07:53.382Z,99832.25
2023-11-01T02:08:07.087Z,99841.53
2023-11-01T02:08:20.890Z,99845.38
2023-11-01T02:08:39.601Z,99827.69
2023-11-01T02:08:56.393Z,99841.72
2023-11-01T02:09:15.809Z,99848.88
2023-11-01T02:09:33.237Z,99841.72
2023-11-01T02:09:49.343Z,99844.56
2023-11-01T02:10:04.696Z,99848.88
2023-11-01T02:10:17.675Z,99839.22
2023-11-01T02:10:33.707Z,99834.06
2023-11-01T02:10:49.848Z,99850.09
2023-11-01T02:11:02.875Z,99843.28
2023-11-01T02:11:21.335Z,99844.56
2023-11-01T02:11:34.065Z,99847.22
2023-11-01T02:11:52.773Z,99848.44
2023-11-01T02:12:06.270Z,99848.44
2023-11-01T02:12:25.604Z,99844.94
2023-11-01T02:12:38.343Z,99844.31
2023-11-01T02:12:53.756Z,99848.25
2023-11-01T02:13:14.623Z,99839.81
2023-11-01T02:13:31.235Z,99839.81
2023-11-01T02:13:44.502Z,99843.91
2023-11-01T02:13:57.326Z,99836.72
2023-11-01T02:14:11.609Z,99845.59
2023-11-01T02:14:27.624Z,99847.63
2023-11-01T02:14:46.269Z,99847.63
2023-11-01T02:15:05.262Z,99849.66
2023-11-01T02:15:21.263Z,99837.94
2023-11-01T02:15:41.993Z,99848.84
2023-11-01T02:15:57.513Z,99844.72
2023-11-01T02:16:14.758Z,99838.94
2023-11-01T02:16:30.005Z,99851.28
2023-11-01T02:16:43.192Z,99842.88
2023-11-01T02:17:00.494Z,99842.47
2023-11-01T02:17:19.632Z,99850.47
2023-11-01T02:17:38.443Z,99848.59
2023-11-01T02:17:53.614Z,99853.94
2023-11-01T02:18:06.784Z,99852.31
2023-11-01T02:18:21.389Z,99849.19
2023-11-01T02:18:38.906Z,99854.97
2023-11-01T02:18:51.682Z,99854.97
2023-11-01T02:19:09.468Z,99863.22
2023-11-01T02:19:24.778Z,99858.47
2023-11-01T02:19:38.497Z,99854.16
2023-11-01T02:19:51.814Z,99854.97
2023-11-01T02:20:16.910Z,99861.75
2023-11-01T02:20:36.003Z,99850.84
2023-11-01T02:20:51.442Z,99847.09
2023-11-01T02:21:10.935Z,99855.16
2023-11-01T02:21:29.601Z,99853.34
2023-11-01T02:21:47.934Z,99859.66
2023-11-01T02:22:01.078Z,99859.66
2023-11-01T02:22:13.817Z,99848.78
2023-11-01T02:22:29.016Z,99848.94
2023-11-01T02:22:44.026Z,99862.16
2023-11-01T02:22:56.750Z,99848.94
2023-11-01T02:23:13.541Z,99848.13
2023-11-01T02:23:37.950Z,99862.34
2023-11-01T02:23:53.572Z,99857.19
2023-11-01T02:24:08.980Z,99849.78
2023-11-01T02:24:22.323Z,99859.66
2023-11-01T02:24:35.081Z,99864.81
2023-11-01T02:24:51.561Z,99861.06
2023-11-01T02:25:05.406Z,99860.25
2023-11-01T02:25:23.726Z,99865.19
2023-11-01T02:25:41.827Z,99858.03
2023-11-01T02:25:56.640Z,99858.84
2023-11-01T02:26:11.713Z,99854.53
2023-11-01T02:26:27.526Z,99859.44
2023-11-01T02:26:47.794Z,99862.72
2023-11-01T02:27:01.923Z,99860.25
2023-11-01T02:27:14.976Z,99867.84
2023-11-01T02:27:30.131Z,99853.28
2023-11-01T02:27:47.485Z,99864.56
2023-11-01T02:28:06.342Z,99863.09
2023-11-01T02:28:24.460Z,99870.50
2023-11-01T02:28:39.430Z,99856.59
2023-11-01T02:28:54.261Z,99867.03
2023-11-01T02:29:07.163Z,99857.75
2023-11-01T02:29:25.789Z,99867.03
2023-11-01T02:29:41.495Z,99856.59
2023-11-01T02:29:57.638Z,99863.47
2023-11-01T02:30:11.451Z,99863.09
2023-11-01T02:30:24.806Z,99873.38
2023-11-01T02:30:38.076Z,99867.59
2023-11-01T02:30:58.613Z,99870.72
2023-11-01T02:31:14.028Z,99869.28
2023-11-01T02:31:26.791Z,99877.91
2023-11-01T02:31:42.211Z,99868.88
2023-11-01T02:32:07.972Z,99869.28
2023-11-01T02:32:20.816Z,99866.78
2023-11-01T02:32:37.720Z,99873.38
2023-11-01T02:32:50.874Z,99883.03
2023-11-01T02:33:06.533Z,99876.06
2023-11-01T02:33:21.014Z,99871.72
2023-11-01T02:33:36.924Z,99868.25
2023-11-01T02:33:52.580Z,99868.81
2023-11-01T02:34:06.482Z,99869.28
2023-11-01T02:34:19.422Z,99877.25
2023-11-01T02:34:38.426Z,99879.72
2023-11-01T02:34:53.661Z,99877.25
2023-11-01T02:35:14.713Z,99876.41
2023-11-01T02:35:27.597Z,99865.91
2023-11-01T02:35:43.049Z,99861.22
2023-11-01T02:35:58.132Z,99865.69
2023-11-01T02:36:11.533Z,99881.97
2023-11-01T02:36:31.926Z,99881.75
2023-11-01T02:36:47.136Z,99872.22
2023-11-01T02:37:00.156Z,99877.19
2023-11-01T02:37:14.599Z,99887.28
2023-11-01T02:37:33.432Z,99882.94
2023-11-01T02:37:49.737Z,99877.19
2023-11-01T02:38:04.857Z,99882.31
2023-11-01T02:38:19.819Z,99880.84
2023-11-01T02:38:36.985Z,99868.09
2023-11-01T02:38:55.429Z,99892.78
2023-11-01T02:39:08.317Z,99888.28
2023-11-01T02:39:23.893Z,99882.94
2023-11-01T02:39:38.789Z,99884.16
2023-11-01T02:39:53.252Z,99881.88
2023-11-01T02:40:08.910Z,99887.66
2023-11-01T02:40:26.611Z,99883.91
2023-11-01T02:40:39.299Z,99889.50
2023-11-01T02:40:54.999Z,99879.59
2023-11-01T02:41:09.664Z,99885.53
2023-11-01T02:41:23.004Z,99889.31
2023-11-01T02:41:35.917Z,99886.81
2023-11-01T02:41:48.809Z,99887.66
2023-11-01T02:42:01.792Z,99882.06
2023-11-01T02:42:16.993Z,99879.59
2023-11-01T02:42:35.719Z,99887.66
2023-11-01T02:42:51.397Z,99875.28
2023-11-01T02:43:05.927Z,99880.84
2023-11-01T02:43:23.470Z,99885.19
2023-11-01T02:43:38.182Z,99875.47
2023-11-01T02:43:51.212Z,99888.50
2023-11-01T02:44:07.622Z,99877.94
2023-11-01T02:44:22.084Z,99885.19
2023-11-01T02:44:37.719Z,99881.88
2023-11-01T02:44:56.483Z,99888.50
2023-11-01T02:45:13.019Z,99893.81
2023-11-01T02:45:26.236Z,99896.09
2023-11-01T02:45:42.182Z,99892.97
2023-11-01T02:45:54.714Z,99885.53
2023-11-01T02:46:07.787Z,99890.94
2023-11-01T02:46:20.903Z,99896.28
2023-11-01T02:46:34.022Z,99887.00
2023-11-01T02:46:49.937Z,99891.75
2023-11-01T02:47:02.529Z,99891.34
2023-11-01T02:47:23.200Z,99891.59
2023-11-01T02:47:35.995Z,99880.69
2023-11-01T02:47:51.714Z,99884.78
2023-11-01T02:48:04.965Z,99871.59
2023-11-01T02:48:18.289Z,99887.28
2023-11-01T02:48:30.929Z,99871.22
2023-11-01T02:48:49.606Z,99891.16
2023-11-01T02:49:02.646Z,99881.88
2023-11-01T02:49:15.686Z,99890.59
2023-11-01T02:49:28.483Z,99888.91
2023-11-01T02:49:41.393Z,99892.41
2023-11-01T02:49:58.492Z,99883.97
2023-11-01T02:50:15.596Z,99889.94
2023-11-01T02:50:28.561Z,99883.97